Time;durP1;ratioP1;P1;durP2;ratioP2;P2;SDS_P1;SDS_P2;PMS_P1;PMS_P2;Temp;Humidity;BMP_temperature;BMP_pressure;BME280_temperature;BME280_humidity;BME280_pressure;Samples;Min_cycle;Max_cycle;Signal;HPM_P1;HPM_P2
2023/03/23 06:42:39;;;;;;;;;;;9.80;87.90;;;;;;5994554;23;19987;31
2023/03/23 06:45:08;;;;;;;;;;;10.00;87.30;;;;;;4885248;29;19963;-95
2023/03/23 06:47:43;;;;;;;;;;;10.20;86.80;;;;;;4903815;29;19988;-96
2023/03/23 06:50:13;;;;;;;;;;;10.30;86.60;;;;;;4902866;29;19947;-96
2023/03/23 06:52:39;;;;;;;;;;;10.40;86.60;;;;;;4887479;29;19954;-96
2023/03/23 06:55:09;;;;;;;;;;;10.50;86.50;;;;;;4900371;29;19956;-95
2023/03/23 06:57:36;;;;;;;;;;;10.60;86.10;;;;;;4897294;29;20426;-96
2023/03/23 07:00:04;;;;;;;;;;;10.80;85.60;;;;;;4895769;29;19944;-96
2023/03/23 07:02:34;;;;;;;;;;;11.10;85.00;;;;;;4909768;29;19985;-96
2023/03/23 07:05:03;;;;;;;;;;;11.30;84.40;;;;;;4905152;29;19947;-96
2023/03/23 07:07:29;;;;;;;;;;;11.50;83.40;;;;;;4902852;29;19947;-94
2023/03/23 07:09:55;;;;;;;;;;;11.60;82.70;;;;;;5002926;23;19979;-93
2023/03/23 07:12:21;;;;;;;;;;;11.90;82.30;;;;;;4933653;29;19947;-94
2023/03/23 07:14:55;;;;;;;;;;;12.00;81.60;;;;;;4946834;29;19944;-93
2023/03/23 07:23:43;;;;;;;;;;;12.00;82.60;;;;;;5142701;22;19962;-92
2023/03/23 07:26:08;;;;;;;;;;;12.40;84.60;;;;;;5132920;27;20450;-95
2023/03/23 07:28:34;;;;;;;;;;;12.70;83.80;;;;;;5132205;28;19982;-94
2023/03/23 07:31:00;;;;;;;;;;;12.90;83.80;;;;;;5132305;27;20027;-94
2023/03/23 07:33:26;;;;;;;;;;;13.20;83.10;;;;;;5132477;27;19934;-95
2023/03/23 07:35:52;;;;;;;;;;;13.40;82.70;;;;;;5132165;27;20401;-95
2023/03/23 07:38:17;;;;;;;;;;;13.60;81.90;;;;;;5131837;28;19944;-91
2023/03/23 07:40:43;;;;;;;;;;;13.70;79.60;;;;;;5131783;28;19975;-93
2023/03/23 07:43:09;;;;;;;;;;;13.90;79.60;;;;;;5131885;27;19942;-93
2023/03/23 07:45:35;;;;;;;;;;;14.00;80.60;;;;;;5131608;27;19978;-93
2023/03/23 07:48:00;;;;;;;;;;;14.10;79.70;;;;;;5131875;27;20092;-94
2023/03/23 07:50:26;;;;;;;;;;;14.20;80.60;;;;;;5136433;28;19940;-95
2023/03/23 07:55:27;;;;;;;;;;;13.90;80.20;;;;;;5153123;27;20298;-93
2023/03/23 07:57:53;;;;;;;;;;;;;;;;;;5135360;28;19947;-96
2023/03/23 08:00:23;;;;;;;;;;;;;;;;;;5132288;28;19915;-94
2023/03/23 08:02:49;;;;;;;;;;;;;;;;;;5131933;28;19961;-96
2023/03/23 08:05:16;;;;;;;;;;;;;;;;;;5131994;28;20389;-95
2023/03/23 08:07:42;;;;;;;;;;;13.90;78.40;;;;;;5137422;28;19892;-94
2023/03/23 08:10:11;;;;;;;;;;;13.90;78.10;;;;;;5115770;28;20363;-95
2023/03/23 08:12:41;;;;;;;;;;;14.00;78.20;;;;;;5111469;28;19908;-96
2023/03/23 08:15:07;;;;;;;;;;;14.10;78.10;;;;;;5102500;28;19918;-96
2023/03/23 08:17:34;;;;;;;;;;;14.30;76.80;;;;;;5118544;28;19919;-95
2023/03/23 08:20:00;;;;;;;;;;;14.30;76.40;;;;;;5121140;28;20366;-93
2023/03/23 08:22:30;;;;;;;;;;;14.40;76.90;;;;;;5130101;28;19925;-95
2023/03/23 08:24:57;;;;;;;;;;;;;;;;;;5130312;28;19912;-96
2023/03/23 08:27:24;;;;;;;;;;;;;;;;;;5140389;28;19892;-94
2023/03/23 14:58:50;;;;;;;;;;;24.40;45.40;;;;;;5405554;22;19916;-96
2023/03/23 15:01:18;;;;;;;;;;;25.60;42.90;;;;;;5128261;28;19935;-96
2023/03/23 15:04:05;;;;;;;;;;;25.90;41.80;;;;;;5100079;28;19909;-96
2023/03/23 15:06:32;;;;;;;;;;;26.20;41.30;;;;;;5101712;28;19908;-96
2023/03/23 15:09:00;;;;;;;;;;;26.20;41.50;;;;;;5087729;28;19908;-97
2023/03/23 15:11:31;;;;;;;;;;;26.20;41.70;;;;;;5088480;28;19908;-96
2023/03/23 15:13:59;;;;;;;;;;;26.50;41.50;;;;;;5102739;28;19912;-96
2023/03/23 15:16:26;;;;;;;;;;;26.60;40.20;;;;;;5099748;28;19916;-96
2023/03/23 15:18:56;;;;;;;;;;;26.80;39.60;;;;;;5098009;28;19916;-96
2023/03/23 15:21:27;;;;;;;;;;;26.90;39.80;;;;;;5102989;28;19912;-96
2023/03/23 15:23:53;;;;;;;;;;;26.80;40.40;;;;;;5102095;28;19961;-96
2023/03/23 15:26:31;;;;;;;;;;;27.20;38.90;;;;;;5100197;28;19917;-94
2023/03/23 15:29:01;;;;;;;;;;;27.40;37.80;;;;;;5086348;28;19938;-96
2023/03/23 15:31:29;;;;;;;;;;;27.00;38.50;;;;;;5107144;28;19913;-96
2023/03/23 15:46:53;;;;;;;;;;;27.00;41.70;;;;;;6160708;22;20960;-96
2023/03/23 15:49:31;;;;;;;;;;;27.10;41.80;;;;;;5483469;22;20072;-96
2023/03/23 15:51:57;;;;;;;;;;;27.20;41.00;;;;;;5092566;28;20006;-96
2023/03/23 15:54:24;;;;;;;;;;;27.20;41.20;;;;;;5109755;28;19908;-96
2023/03/23 15:56:50;;;;;;;;;;;27.20;40.40;;;;;;5092124;28;19923;-96
2023/03/23 15:59:15;;;;;;;;;;;27.20;40.70;;;;;;5080318;28;19910;-97
2023/03/23 16:01:42;;;;;;;;;;;27.20;40.60;;;;;;5073642;28;19909;-96
2023/03/23 16:04:18;;;;;;;;;;;27.10;40.90;;;;;;5090254;28;19913;-96
2023/03/23 16:06:47;;;;;;;;;;;27.30;40.60;;;;;;5091790;28;19940;-96
2023/03/23 16:09:15;;;;;;;;;;;27.10;41.00;;;;;;5092453;28;19908;-96
2023/03/23 16:11:41;;;;;;;;;;;26.70;42.50;;;;;;5072001;28;19987;-96
2023/03/23 16:14:07;;;;;;;;;;;26.50;43.00;;;;;;5068632;28;19919;-96
2023/03/23 16:16:38;;;;;;;;;;;26.50;43.10;;;;;;5088687;28;19908;-96
2023/03/23 16:19:05;;;;;;;;;;;26.50;42.60;;;;;;5068546;28;19947;-96
2023/03/23 16:21:30;;;;;;;;;;;26.00;44.00;;;;;;5088242;28;19915;-96
2023/03/23 16:23:57;;;;;;;;;;;25.60;45.20;;;;;;5081452;28;19956;-96
2023/03/23 16:26:22;;;;;;;;;;;25.50;45.40;;;;;;5081571;28;19913;-96
2023/03/23 16:28:48;;;;;;;;;;;25.40;45.10;;;;;;5082323;28;19915;-96
2023/03/23 16:31:14;;;;;;;;;;;24.90;46.80;;;;;;5088510;28;19912;-96
2023/03/23 16:33:40;;;;;;;;;;;24.80;46.80;;;;;;5071039;28;19991;-96
2023/03/23 16:36:07;;;;;;;;;;;24.80;46.00;;;;;;5090022;28;19923;-93
2023/03/23 16:38:33;;;;;;;;;;;24.30;47.10;;;;;;5279928;22;21315;-96
2023/03/23 16:41:02;;;;;;;;;;;24.10;48.40;;;;;;5180590;22;19988;-96
2023/03/23 16:43:31;;;;;;;;;;;23.80;49.00;;;;;;5103512;28;19912;-96
2023/03/23 16:45:56;;;;;;;;;;;23.50;50.60;;;;;;5428937;22;19928;-96
2023/03/23 16:48:25;;;;;;;;;;;23.30;50.00;;;;;;5073878;28;19919;-96
2023/03/23 16:50:51;;;;;;;;;;;23.60;49.20;;;;;;5069279;28;19970;-96
2023/03/23 16:53:17;;;;;;;;;;;23.30;49.30;;;;;;5063091;28;20365;-96
2023/03/23 16:55:46;;;;;;;;;;;22.90;50.30;;;;;;5082926;28;19908;-96
2023/03/23 16:58:12;;;;;;;;;;;22.60;51.20;;;;;;5081776;28;19916;-96
2023/03/23 17:00:39;;;;;;;;;;;22.20;51.90;;;;;;5082708;28;19909;-96
2023/03/23 17:03:05;;;;;;;;;;;21.80;52.90;;;;;;5082154;28;19908;-96
2023/03/23 17:05:31;;;;;;;;;;;21.50;54.00;;;;;;5082611;28;19962;-96
2023/03/23 17:07:57;;;;;;;;;;;21.10;55.30;;;;;;5082539;28;19912;-96
2023/03/23 17:10:24;;;;;;;;;;;20.80;56.30;;;;;;5063222;28;19961;-96
2023/03/23 17:12:50;;;;;;;;;;;20.30;57.50;;;;;;5064815;28;19909;-96
2023/03/23 17:15:15;;;;;;;;;;;20.10;57.90;;;;;;5066066;28;19912;-96
2023/03/23 17:17:41;;;;;;;;;;;19.80;58.80;;;;;;5085288;28;19908;-96
2023/03/23 17:20:08;;;;;;;;;;;19.20;60.80;;;;;;5068179;28;19912;-96
2023/03/23 17:22:35;;;;;;;;;;;18.80;62.00;;;;;;5069193;28;19940;-96
2023/03/23 17:25:01;;;;;;;;;;;18.80;62.40;;;;;;5070693;28;19908;-96
2023/03/23 17:27:26;;;;;;;;;;;18.80;62.30;;;;;;5070611;28;19960;-96
2023/03/23 17:29:52;;;;;;;;;;;18.50;62.80;;;;;;5071402;28;20002;-96
2023/03/23 17:32:20;;;;;;;;;;;18.40;63.20;;;;;;5091629;28;19915;-96
2023/03/23 17:34:46;;;;;;;;;;;18.40;63.30;;;;;;5074037;28;19908;-96
2023/03/23 17:37:12;;;;;;;;;;;18.30;64.00;;;;;;5073381;28;19954;-96
2023/03/23 17:39:38;;;;;;;;;;;17.90;65.30;;;;;;5074461;28;19963;-96
2023/03/23 17:42:04;;;;;;;;;;;17.90;65.40;;;;;;5077395;28;19915;-96
2023/03/23 17:44:31;;;;;;;;;;;17.80;65.60;;;;;;5078083;28;19948;-96
2023/03/23 17:46:56;;;;;;;;;;;17.80;66.10;;;;;;5077919;28;19950;-96
2023/03/23 17:49:24;;;;;;;;;;;17.70;66.40;;;;;;5096431;28;19931;-96
2023/03/23 17:51:51;;;;;;;;;;;17.60;66.90;;;;;;5079142;28;19915;-96
2023/03/23 17:54:19;;;;;;;;;;;17.50;67.50;;;;;;5079640;28;19892;-96
2023/03/23 17:56:48;;;;;;;;;;;17.30;68.10;;;;;;5080178;28;19909;-96
2023/03/23 17:59:22;;;;;;;;;;;17.30;68.70;;;;;;5095540;28;19921;-96
2023/03/23 18:01:51;;;;;;;;;;;17.10;69.40;;;;;;5081208;28;19915;-96
2023/03/23 18:04:38;;;;;;;;;;;16.90;69.90;;;;;;5099024;28;19919;-96
2023/03/23 18:55:12;;;;;;;;;;;15.00;76.20;;;;;;5352453;23;19949;-96
2023/03/23 18:57:45;;;;;;;;;;;14.90;76.90;;;;;;4985187;28;19909;-96
2023/03/23 19:00:22;;;;;;;;;;;14.90;77.10;;;;;;5017685;28;19978;-96
2023/03/23 19:02:49;;;;;;;;;;;14.80;77.50;;;;;;4999767;28;19917;-96
2023/03/23 19:05:21;;;;;;;;;;;14.80;77.70;;;;;;5017460;28;19910;-96
2023/03/23 19:07:52;;;;;;;;;;;14.70;77.80;;;;;;4984963;28;19902;-96
2023/03/23 19:10:20;;;;;;;;;;;14.70;77.30;;;;;;5000387;28;19909;-96
2023/03/23 19:12:50;;;;;;;;;;;14.70;76.80;;;;;;5016861;28;19961;-96
2023/03/23 19:15:16;;;;;;;;;;;14.60;76.70;;;;;;4999074;28;19914;-96
2023/03/23 19:17:45;;;;;;;;;;;14.40;76.80;;;;;;4998598;28;19948;-96
2023/03/23 19:20:11;;;;;;;;;;;14.30;77.90;;;;;;5015617;28;19910;-96
2023/03/23 19:22:39;;;;;;;;;;;14.10;78.30;;;;;;5000256;28;19894;-96
2023/03/23 19:25:07;;;;;;;;;;;14.10;78.30;;;;;;5017526;28;19900;-96
2023/03/23 19:27:38;;;;;;;;;;;14.00;78.30;;;;;;5015971;28;19965;-96
2023/03/23 19:30:05;;;;;;;;;;;14.00;78.40;;;;;;4999210;28;19933;-96
2023/03/23 19:32:32;;;;;;;;;;;13.90;78.50;;;;;;5015919;28;19933;-96
2023/03/23 19:35:00;;;;;;;;;;;13.90;78.60;;;;;;5002560;28;19980;-96
2023/03/23 19:37:27;;;;;;;;;;;13.90;78.70;;;;;;5002631;28;19917;-96
2023/03/23 19:39:53;;;;;;;;;;;13.80;79.00;;;;;;4985341;28;19917;-96
2023/03/23 19:42:20;;;;;;;;;;;13.70;79.40;;;;;;5001165;28;19910;-96
2023/03/23 19:44:46;;;;;;;;;;;13.60;79.80;;;;;;5017252;28;19973;-96
2023/03/23 19:47:12;;;;;;;;;;;13.50;80.00;;;;;;5000584;28;19917;-96
2023/03/23 19:49:38;;;;;;;;;;;13.50;80.20;;;;;;5000139;28;19910;-96
2023/03/23 19:52:04;;;;;;;;;;;13.40;80.80;;;;;;5016958;28;19934;-96
2023/03/23 19:54:30;;;;;;;;;;;13.40;80.90;;;;;;5016370;28;19928;-96
2023/03/23 19:56:57;;;;;;;;;;;13.40;80.80;;;;;;5016687;28;20458;-96
2023/03/23 19:59:24;;;;;;;;;;;13.40;80.60;;;;;;4996601;28;19910;-96
2023/03/23 20:01:52;;;;;;;;;;;13.30;81.30;;;;;;4995659;28;19910;-96
2023/03/23 20:04:20;;;;;;;;;;;13.30;81.40;;;;;;4997008;28;19988;-96
2023/03/23 20:06:46;;;;;;;;;;;13.30;81.90;;;;;;5014187;28;19937;-96
2023/03/23 20:09:15;;;;;;;;;;;13.30;82.00;;;;;;5014990;28;20001;-96
2023/03/23 20:11:41;;;;;;;;;;;13.30;81.20;;;;;;5014154;28;19917;-96
2023/03/23 20:14:07;;;;;;;;;;;13.30;81.20;;;;;;5013517;28;19910;-96
2023/03/23 20:16:33;;;;;;;;;;;13.30;81.10;;;;;;4995738;28;19914;-96
2023/03/23 20:18:59;;;;;;;;;;;13.20;81.40;;;;;;4995611;28;19917;-96
2023/03/23 20:21:25;;;;;;;;;;;13.20;81.50;;;;;;5013524;28;19909;-96
2023/03/23 20:23:53;;;;;;;;;;;13.20;81.80;;;;;;4996195;28;19924;-96
2023/03/23 20:26:20;;;;;;;;;;;13.20;82.00;;;;;;5013647;28;19933;-96
2023/03/23 20:28:46;;;;;;;;;;;13.20;81.60;;;;;;4996544;28;20421;-97
2023/03/23 20:31:14;;;;;;;;;;;13.20;81.20;;;;;;4996342;28;19914;-96
2023/03/23 20:33:40;;;;;;;;;;;13.10;81.10;;;;;;4995634;28;19917;-96
2023/03/23 20:36:09;;;;;;;;;;;13.00;81.30;;;;;;4996308;28;19941;-97
2023/03/23 20:38:37;;;;;;;;;;;13.00;81.60;;;;;;4997627;28;19933;-96
2023/03/23 20:41:04;;;;;;;;;;;13.10;82.40;;;;;;5015660;28;19920;-96
2023/03/23 20:43:32;;;;;;;;;;;13.10;82.70;;;;;;4997947;28;19910;-96
2023/03/23 20:46:01;;;;;;;;;;;13.10;82.60;;;;;;4997261;28;19954;-96
2023/03/23 20:48:29;;;;;;;;;;;13.10;82.70;;;;;;4998234;28;19913;-96
2023/03/23 20:51:01;;;;;;;;;;;13.10;82.60;;;;;;4997742;28;19960;-96
2023/03/23 20:53:28;;;;;;;;;;;13.10;82.50;;;;;;4997733;28;19910;-96
2023/03/23 20:55:56;;;;;;;;;;;13.10;82.10;;;;;;5015940;28;19989;-96
2023/03/23 20:58:23;;;;;;;;;;;13.10;81.80;;;;;;5015689;28;19973;-96
2023/03/23 21:00:49;;;;;;;;;;;13.10;81.30;;;;;;5014791;28;19910;-96
2023/03/23 21:03:15;;;;;;;;;;;13.00;81.00;;;;;;5013791;28;19938;-96
2023/03/23 21:05:45;;;;;;;;;;;12.90;81.20;;;;;;4996272;28;19933;-96
2023/03/23 21:08:10;;;;;;;;;;;12.90;81.60;;;;;;5013038;28;19914;-96
2023/03/23 21:10:37;;;;;;;;;;;12.80;82.40;;;;;;4995287;28;19910;-96
2023/03/23 21:13:03;;;;;;;;;;;12.80;82.50;;;;;;4996167;28;19917;-96
2023/03/23 21:15:30;;;;;;;;;;;12.90;82.40;;;;;;5018339;28;19997;-96
2023/03/23 21:18:00;;;;;;;;;;;12.90;82.30;;;;;;5001658;28;19918;-96
2023/03/23 21:20:33;;;;;;;;;;;12.90;82.20;;;;;;5016927;28;19925;-96
2023/03/23 21:23:07;;;;;;;;;;;12.90;82.30;;;;;;5018017;28;19909;-96
2023/03/23 21:25:37;;;;;;;;;;;12.90;82.30;;;;;;5019091;28;19948;-96
2023/03/23 21:28:11;;;;;;;;;;;12.90;82.00;;;;;;5018524;28;20367;-96
2023/03/23 21:30:44;;;;;;;;;;;12.90;81.80;;;;;;5001946;28;19894;-96
2023/03/23 21:33:14;;;;;;;;;;;12.90;81.70;;;;;;5002581;28;19937;-96
2023/03/23 21:35:51;;;;;;;;;;;12.80;81.40;;;;;;5018316;28;19945;-96
2023/03/23 21:38:18;;;;;;;;;;;12.60;81.00;;;;;;5000747;28;19960;-96
2023/03/23 21:40:45;;;;;;;;;;;12.40;81.60;;;;;;4999774;28;19918;-96
2023/03/23 21:43:12;;;;;;;;;;;12.30;81.80;;;;;;5000017;28;19910;-96
2023/03/23 21:45:39;;;;;;;;;;;12.20;82.20;;;;;;5000373;28;19910;-96
2023/03/23 21:48:06;;;;;;;;;;;12.10;83.20;;;;;;4999421;28;19914;-96
2023/03/23 21:50:34;;;;;;;;;;;12.00;83.60;;;;;;4998986;28;19910;-96
2023/03/23 21:53:01;;;;;;;;;;;12.00;83.60;;;;;;5016175;28;19910;-96
2023/03/23 21:55:28;;;;;;;;;;;12.00;83.30;;;;;;4980506;28;19946;-96
2023/03/23 21:57:57;;;;;;;;;;;12.10;82.80;;;;;;4977067;29;19910;-96
2023/03/23 22:00:25;;;;;;;;;;;11.90;82.10;;;;;;4976504;29;19970;-97
2023/03/23 22:02:52;;;;;;;;;;;11.80;82.90;;;;;;4959652;29;19922;-96
2023/03/23 22:05:18;;;;;;;;;;;11.80;83.20;;;;;;4975237;29;19910;-96
2023/03/23 22:07:45;;;;;;;;;;;11.90;83.40;;;;;;4974849;29;19921;-96
2023/03/23 22:10:11;;;;;;;;;;;11.90;83.30;;;;;;4976005;29;19945;-96
2023/03/23 22:12:38;;;;;;;;;;;11.90;83.20;;;;;;4975226;29;19918;-96
2023/03/23 22:15:06;;;;;;;;;;;11.90;83.00;;;;;;4973283;29;19911;-96
2023/03/23 22:17:32;;;;;;;;;;;11.80;84.20;;;;;;4972744;29;19949;-96
2023/03/23 22:20:01;;;;;;;;;;;11.70;84.80;;;;;;4973098;29;19934;-96
2023/03/23 22:22:27;;;;;;;;;;;11.60;85.20;;;;;;4973181;29;19993;-96
2023/03/23 22:24:53;;;;;;;;;;;11.60;85.70;;;;;;4973600;29;19911;-96
2023/03/23 22:27:19;;;;;;;;;;;11.60;85.70;;;;;;4973380;29;20005;-96
2023/03/23 22:29:45;;;;;;;;;;;11.60;85.10;;;;;;4973607;29;19917;-96
2023/03/23 22:32:12;;;;;;;;;;;11.60;85.30;;;;;;4973012;29;19910;-96
2023/03/23 22:34:38;;;;;;;;;;;11.60;85.30;;;;;;4973153;29;19986;-96
2023/03/23 22:37:04;;;;;;;;;;;11.60;85.30;;;;;;4974153;29;19910;-96
2023/03/23 22:39:30;;;;;;;;;;;11.60;85.70;;;;;;4973580;29;19910;-96
2023/03/23 22:41:56;;;;;;;;;;;11.60;85.80;;;;;;4972663;29;19934;-96
2023/03/23 22:44:22;;;;;;;;;;;11.60;85.80;;;;;;4973492;29;19918;-96
2023/03/23 22:46:48;;;;;;;;;;;11.60;85.10;;;;;;4971703;29;19914;-96
2023/03/23 22:49:14;;;;;;;;;;;11.50;85.20;;;;;;4972056;29;19917;-96
2023/03/23 22:51:40;;;;;;;;;;;11.50;85.40;;;;;;4972937;29;19945;-96
2023/03/23 22:54:06;;;;;;;;;;;11.60;85.50;;;;;;4982038;28;19971;-96
2023/03/23 22:56:32;;;;;;;;;;;11.50;85.20;;;;;;5011580;28;20136;-96
2023/03/23 22:58:59;;;;;;;;;;;11.50;84.80;;;;;;5012133;28;19933;-96
2023/03/23 23:01:25;;;;;;;;;;;11.50;84.40;;;;;;5011641;28;19961;-96
2023/03/23 23:03:51;;;;;;;;;;;11.50;85.10;;;;;;4993566;28;19906;-96
2023/03/23 23:06:17;;;;;;;;;;;11.40;85.30;;;;;;4992813;28;19910;-96
2023/03/23 23:08:43;;;;;;;;;;;11.40;84.30;;;;;;4993283;28;19941;-96
2023/03/23 23:11:10;;;;;;;;;;;11.40;84.80;;;;;;5013417;28;19909;-96
2023/03/23 23:13:37;;;;;;;;;;;11.30;85.40;;;;;;4994822;28;19932;-96
2023/03/23 23:16:03;;;;;;;;;;;11.30;86.40;;;;;;5012112;28;19914;-96
2023/03/23 23:18:29;;;;;;;;;;;11.30;86.00;;;;;;4995782;28;19933;-96
2023/03/23 23:20:56;;;;;;;;;;;11.40;85.90;;;;;;5014664;28;19917;-96
2023/03/23 23:23:22;;;;;;;;;;;11.40;86.20;;;;;;5013914;28;19910;-96
2023/03/23 23:25:49;;;;;;;;;;;11.40;87.00;;;;;;5013541;28;19932;-96
2023/03/23 23:28:15;;;;;;;;;;;11.40;87.20;;;;;;5013259;28;20001;-96
2023/03/23 23:30:41;;;;;;;;;;;11.40;86.10;;;;;;4995070;28;19910;-96
2023/03/23 23:33:08;;;;;;;;;;;11.20;86.10;;;;;;5013855;28;19910;-96
2023/03/23 23:35:35;;;;;;;;;;;11.20;86.00;;;;;;5016385;28;19909;-96
2023/03/23 23:38:02;;;;;;;;;;;11.20;85.80;;;;;;4998544;28;19965;-96
2023/03/23 23:40:28;;;;;;;;;;;11.20;86.00;;;;;;4997976;28;19910;-96
2023/03/23 23:42:54;;;;;;;;;;;11.20;86.30;;;;;;5015547;28;19916;-96
2023/03/23 23:45:21;;;;;;;;;;;11.10;86.60;;;;;;5001474;28;19916;-96
2023/03/23 23:47:47;;;;;;;;;;;11.10;86.80;;;;;;5002534;28;19948;-96
2023/03/23 23:50:13;;;;;;;;;;;11.10;86.90;;;;;;5020079;28;19921;-96
2023/03/23 23:52:43;;;;;;;;;;;11.10;86.70;;;;;;5002729;28;19910;-96
2023/03/23 23:55:12;;;;;;;;;;;11.10;86.50;;;;;;5019603;28;19981;-96
2023/03/23 23:57:43;;;;;;;;;;;11.00;86.80;;;;;;5002216;28;19914;-96
